Time;durP1;ratioP1;P1;durP2;ratioP2;P2;SDS_P1;SDS_P2;PMS_P1;PMS_P2;Temp;Humidity;BMP_temperature;BMP_pressure;BME280_temperature;BME280_humidity;BME280_pressure;Samples;Min_cycle;Max_cycle;Signal;HPM_P1;HPM_P2
2021/07/20 00:03:33;;;;;;;8.78;5.93;;;;;;;14.23;70.36;99837.29;257384;1104;115470;-66
2021/07/20 00:08:39;;;;;;;9.73;5.13;;;;;;;14.18;70.57;99840.73;257309;1104;114634;-67
2021/07/20 00:13:44;;;;;;;7.87;4.40;;;;;;;14.23;70.90;99835.41;257109;1104;117604;-67
2021/07/20 00:18:49;;;;;;;9.17;5.33;;;;;;;14.26;70.93;99834.91;257154;1104;116540;-66
2021/07/20 00:23:54;;;;;;;7.70;5.47;;;;;;;14.28;71.23;99840.02;256086;1104;116436;-66
2021/07/20 00:29:02;;;;;;;7.23;4.75;;;;;;;14.21;70.85;99840.22;257042;1104;115931;-66
2021/07/20 00:34:07;;;;;;;6.58;4.58;;;;;;;14.00;70.10;99838.44;256010;1104;115249;-64
2021/07/20 00:39:11;;;;;;;6.93;4.15;;;;;;;13.83;70.76;99833.98;255357;1104;115971;-65
2021/07/20 00:44:16;;;;;;;7.85;4.58;;;;;;;13.69;70.26;99843.51;254562;1104;115997;-66
2021/07/20 00:49:22;;;;;;;7.70;4.98;;;;;;;13.50;71.02;99842.21;255790;1104;116524;-66
2021/07/20 00:54:28;;;;;;;6.47;4.60;;;;;;;13.39;71.40;99843.17;254814;1104;117567;-65
2021/07/20 00:59:37;;;;;;;4.58;4.15;;;;;;;13.27;71.57;99845.16;255488;1104;116991;-66
2021/07/20 01:04:42;;;;;;;7.10;5.40;;;;;;;13.20;71.73;99833.83;256133;1104;116438;-65
2021/07/20 01:09:48;;;;;;;6.00;5.45;;;;;;;13.12;71.64;99829.71;255392;1104;117373;-65
2021/07/20 01:14:55;;;;;;;8.20;5.98;;;;;;;13.06;72.01;99833.38;254274;1104;115327;-65
2021/07/20 01:20:00;;;;;;;7.50;5.56;;;;;;;13.14;72.45;99827.59;255600;1104;115748;-66
2021/07/20 01:25:10;;;;;;;8.33;6.43;;;;;;;13.24;73.29;99824.23;254798;1104;115214;-65
2021/07/20 01:30:16;;;;;;;5.33;4.78;;;;;;;13.23;72.42;99820.76;255881;1100;115920;-65
2021/07/20 01:35:22;;;;;;;6.15;5.40;;;;;;;13.15;72.62;99821.99;255735;1104;115430;-65
2021/07/20 01:40:27;;;;;;;7.15;5.65;;;;;;;13.03;72.42;99813.27;254355;1104;116863;-65
2021/07/20 01:45:35;;;;;;;7.30;4.78;;;;;;;13.01;73.07;99804.68;254877;1104;115837;-64
2021/07/20 01:50:41;;;;;;;7.95;4.95;;;;;;;13.03;72.78;99809.78;254590;1104;116747;-66
2021/07/20 01:55:47;;;;;;;7.03;4.80;;;;;;;12.94;73.06;99804.05;256184;1104;116604;-64
2021/07/20 02:00:54;;;;;;;6.10;5.35;;;;;;;12.92;72.96;99811.51;257099;1104;115965;-66
2021/07/20 02:11:33;;;;;;;7.47;5.50;;;;;;;13.02;73.56;99810.84;257160;1104;117413;-65
2021/07/20 02:16:46;;;;;;;11.33;5.00;;;;;;;13.11;73.89;99812.84;257277;1104;116346;-65
2021/07/20 02:21:56;;;;;;;6.13;4.77;;;;;;;13.14;73.64;99812.34;257464;1104;117040;-65
2021/07/20 02:27:06;;;;;;;5.43;4.93;;;;;;;13.22;73.83;99807.62;257096;1104;117034;-65
2021/07/20 02:32:13;;;;;;;7.63;5.40;;;;;;;13.17;73.41;99815.58;257367;1104;115680;-65
2021/07/20 02:37:18;;;;;;;10.93;5.18;;;;;;;13.12;73.73;99817.14;257331;1104;116163;-66
2021/07/20 02:42:24;;;;;;;6.95;5.18;;;;;;;13.18;74.40;99819.88;257331;1104;118723;-67
2021/07/20 02:47:31;;;;;;;17.00;6.53;;;;;;;13.23;74.37;99822.63;256248;1104;116020;-68
2021/07/20 02:52:38;;;;;;;8.45;5.45;;;;;;;13.25;74.21;99821.31;254521;1104;116825;-68
2021/07/20 02:57:45;;;;;;;10.80;5.73;;;;;;;13.37;74.81;99819.33;254610;1104;116880;-67
2021/07/20 03:02:51;;;;;;;9.00;5.20;;;;;;;13.43;74.59;99823.69;256088;1104;115448;-68
2021/07/20 03:07:57;;;;;;;6.70;5.87;;;;;;;13.52;74.77;99821.34;256409;1104;115468;-67
2021/07/20 03:13:07;;;;;;;9.50;5.98;;;;;;;13.52;74.87;99815.98;255236;1104;116916;-67
2021/07/20 03:18:14;;;;;;;13.20;6.20;;;;;;;13.51;75.30;99814.38;254928;1104;115498;-65
2021/07/20 03:23:21;;;;;;;6.68;5.88;;;;;;;13.61;75.04;99824.39;256750;1104;116550;-67
2021/07/20 03:28:29;;;;;;;18.25;6.28;;;;;;;13.72;74.99;99823.45;255591;1104;116121;-66
2021/07/20 03:33:38;;;;;;;11.80;6.13;;;;;;;13.91;75.16;99823.88;254372;1104;116085;-67
2021/07/20 03:38:45;;;;;;;10.03;5.73;;;;;;;14.07;75.13;99828.30;255819;1104;115617;-66
2021/07/20 03:43:51;;;;;;;10.40;4.93;;;;;;;14.24;75.25;99823.63;254261;1104;116126;-66
2021/07/20 03:48:58;;;;;;;6.10;5.53;;;;;;;14.50;76.03;99830.02;254143;1100;117238;-66
2021/07/20 03:54:07;;;;;;;10.43;5.93;;;;;;;14.76;75.87;99823.73;256266;1104;116410;-66
2021/07/20 03:59:13;;;;;;;6.38;5.78;;;;;;;14.96;75.19;99825.73;256837;1104;115394;-67
2021/07/20 04:04:21;;;;;;;11.87;6.27;;;;;;;15.16;75.59;99831.19;256815;1104;114216;-66
2021/07/20 04:09:26;;;;;;;9.87;5.97;;;;;;;15.30;74.89;99826.12;256910;1104;115401;-67
2021/07/20 04:14:32;;;;;;;13.03;6.08;;;;;;;15.56;75.13;99826.22;257350;1104;114884;-66
2021/07/20 04:19:36;;;;;;;8.08;5.33;;;;;;;15.77;75.00;99828.70;257258;1104;173991;-67
2021/07/20 04:24:43;;;;;;;10.88;5.03;;;;;;;16.00;74.46;99824.69;257312;1104;115419;-67
2021/07/20 04:29:47;;;;;;;9.35;6.50;;;;;;;16.30;74.47;99821.20;257001;1104;115393;-68
2021/07/20 04:34:55;;;;;;;13.25;7.05;;;;;;;16.68;74.09;99821.72;257048;1104;114506;-68
2021/07/20 04:40:00;;;;;;;6.25;5.73;;;;;;;17.08;73.39;99826.19;257267;1104;115170;-68
2021/07/20 04:45:08;;;;;;;14.37;6.30;;;;;;;17.34;73.16;99838.47;257296;1104;115736;-68
2021/07/20 04:50:14;;;;;;;9.83;5.57;;;;;;;17.67;72.23;99834.28;257170;1104;115817;-67
2021/07/20 04:55:20;;;;;;;7.43;4.83;;;;;;;18.00;71.94;99845.39;256987;1104;115715;-67
2021/07/20 05:00:25;;;;;;;6.77;6.17;;;;;;;18.47;71.22;99837.43;257072;1104;115313;-66
2021/07/20 05:05:39;;;;;;;7.70;5.95;;;;;;;18.85;70.20;99840.33;256835;1104;116385;-67
2021/07/20 05:10:48;;;;;;;8.55;4.98;;;;;;;21.00;67.90;99843.09;255433;1104;115301;-67
2021/07/20 05:15:59;;;;;;;10.48;5.75;;;;;;;21.89;66.83;99849.91;255532;1099;117041;-66
2021/07/20 05:21:05;;;;;;;7.78;4.88;;;;;;;24.08;63.57;99853.73;256330;1104;115237;-68
2021/07/20 05:26:13;;;;;;;8.93;5.40;;;;;;;27.77;59.09;99853.11;254371;1104;136704;-69
2021/07/20 05:31:20;;;;;;;5.80;5.20;;;;;;;30.59;55.02;99866.98;254926;1104;115723;-71
2021/07/20 05:36:30;;;;;;;4.30;3.90;;;;;;;32.79;51.22;99872.83;253710;1104;115120;-70
2021/07/20 05:41:34;;;;;;;4.20;3.33;;;;;;;34.44;47.38;99879.78;253705;1104;115403;-72
2021/07/20 05:46:41;;;;;;;3.30;2.90;;;;;;;35.76;45.13;99888.88;253793;1104;115212;-67
2021/07/20 05:51:46;;;;;;;3.25;2.98;;;;;;;36.10;42.33;99896.68;253718;1104;115108;-68
2021/07/20 05:56:52;;;;;;;3.18;2.68;;;;;;;36.00;40.45;99894.76;253680;1104;115720;-69
2021/07/20 06:01:57;;;;;;;4.18;2.73;;;;;;;36.43;39.78;99889.80;254709;1104;115028;-68
2021/07/20 06:07:08;;;;;;;5.08;2.38;;;;;;;35.54;38.49;99894.86;255442;1104;114916;-68
2021/07/20 06:12:15;;;;;;;3.05;2.45;;;;;;;36.19;37.48;99888.71;253775;1104;114967;-69
2021/07/20 06:17:24;;;;;;;7.00;2.97;;;;;;;37.21;36.24;99880.93;256818;1104;115081;-69
2021/07/20 06:22:34;;;;;;;3.13;2.73;;;;;;;38.02;34.99;99893.16;257131;1104;115713;-69
2021/07/20 06:27:40;;;;;;;1.88;1.75;;;;;;;38.61;34.28;99895.58;256432;1104;115457;-68
2021/07/20 06:32:45;;;;;;;5.97;2.03;;;;;;;38.26;33.83;99893.27;255056;1104;115448;-70
2021/07/20 06:37:51;;;;;;;3.43;2.30;;;;;;;37.99;32.75;99891.21;257126;1104;116379;-70
2021/07/20 06:42:56;;;;;;;3.65;2.28;;;;;;;37.45;33.04;99887.44;257214;1104;117739;-70
2021/07/20 06:48:04;;;;;;;9.05;2.53;;;;;;;36.32;33.34;99891.86;257137;1104;115023;-68
2021/07/20 06:53:13;;;;;;;2.33;2.03;;;;;;;35.82;33.02;99889.27;255799;1104;114848;-68
2021/07/20 06:58:23;;;;;;;3.45;2.38;;;;;;;35.09;33.90;99888.97;253833;1104;115407;-68
2021/07/20 07:04:08;;;;;;;1.85;1.75;;;;;;;33.58;34.15;99886.09;254492;1100;116373;-70
2021/07/20 07:09:14;;;;;;;2.93;2.23;;;;;;;32.06;36.28;99879.91;256143;1104;115805;-68
2021/07/20 07:14:19;;;;;;;2.68;2.48;;;;;;;32.10;37.06;99886.27;255821;1104;114729;-68
2021/07/20 07:19:25;;;;;;;1.93;1.73;;;;;;;32.99;36.37;99873.42;254982;1104;115061;-67
2021/07/20 07:24:31;;;;;;;2.98;2.10;;;;;;;33.72;35.90;99877.86;254974;1104;115090;-70
2021/07/20 07:29:37;;;;;;;3.30;1.90;;;;;;;33.55;36.51;99878.58;254176;1098;116605;-69
2021/07/20 07:34:43;;;;;;;2.00;1.80;;;;;;;33.25;36.51;99870.45;253896;1104;115436;-69
2021/07/20 07:39:52;;;;;;;3.63;2.18;;;;;;;33.08;37.43;99869.13;253734;1104;115075;-69
2021/07/20 07:44:59;;;;;;;2.40;2.20;;;;;;;32.72;36.74;99875.49;253973;1104;117618;-68
2021/07/20 07:50:07;;;;;;;6.63;2.48;;;;;;;32.57;37.47;99876.55;254022;1104;115421;-66
2021/07/20 07:55:12;;;;;;;3.97;1.90;;;;;;;31.57;37.58;99880.00;253820;1104;115821;-67
2021/07/20 08:00:18;;;;;;;2.95;2.00;;;;;;;30.68;38.54;99879.34;253861;1104;115622;-68
2021/07/20 08:05:24;;;;;;;2.73;1.85;;;;;;;29.70;38.81;99882.44;254661;1104;115411;-68
2021/07/20 08:10:31;;;;;;;4.83;2.95;;;;;;;28.66;39.57;99883.02;254192;1104;143917;-67
2021/07/20 08:15:36;;;;;;;3.03;2.23;;;;;;;27.98;40.63;99872.90;255950;1104;115489;-67
2021/07/20 08:20:42;;;;;;;3.47;2.80;;;;;;;27.52;41.18;99884.40;254857;1104;118922;-66
2021/07/20 08:25:52;;;;;;;3.80;2.43;;;;;;;27.23;41.36;99875.27;255957;1104;115061;-67
2021/07/20 08:31:02;;;;;;;3.73;2.80;;;;;;;27.06;42.54;99879.04;255267;1100;115247;-69
2021/07/20 08:36:26;;;;;;;3.93;2.70;;;;;;;26.67;42.44;99882.36;255017;1104;115105;-70
2021/07/20 08:42:06;;;;;;;3.75;2.35;;;;;;;26.71;43.41;99877.81;255270;1104;115149;-66
2021/07/20 08:47:29;;;;;;;2.98;2.38;;;;;;;27.30;44.32;99882.91;257188;1104;114723;-67
2021/07/20 08:52:40;;;;;;;2.75;2.25;;;;;;;28.01;43.26;99876.89;257150;1104;115096;-66
2021/07/20 08:58:02;;;;;;;3.13;2.00;;;;;;;28.40;42.55;99865.11;257233;1104;115324;-67
2021/07/20 09:03:24;;;;;;;3.93;2.58;;;;;;;28.65;41.90;99873.20;254268;1104;115054;-66
2021/07/20 09:08:57;;;;;;;2.85;2.48;;;;;;;28.60;40.94;99866.02;254632;1104;115925;-67
2021/07/20 09:14:28;;;;;;;4.48;2.48;;;;;;;28.56;40.17;99861.58;254844;1104;115760;-67
2021/07/20 09:19:59;;;;;;;4.63;2.55;;;;;;;28.49;41.63;99857.50;254021;1104;118168;-67
2021/07/20 09:25:03;;;;;;;3.68;1.83;;;;;;;28.55;40.52;99852.56;254663;1104;116306;-68
2021/07/20 09:30:17;;;;;;;2.38;2.23;;;;;;;28.13;40.99;99854.91;254303;1104;115945;-70
2021/07/20 09:35:43;;;;;;;3.53;2.45;;;;;;;27.72;40.86;99843.19;255468;1104;116778;-68
2021/07/20 09:41:13;;;;;;;3.60;2.73;;;;;;;27.35;41.21;99844.36;254207;1104;115464;-68
2021/07/20 09:46:36;;;;;;;2.80;2.60;;;;;;;27.03;42.07;99843.35;254540;1100;116331;-69
2021/07/20 09:52:13;;;;;;;6.90;2.83;;;;;;;26.92;41.91;99842.97;254719;1100;116105;-69
2021/07/20 09:57:30;;;;;;;5.00;2.75;;;;;;;26.56;42.42;99851.14;254122;1104;117761;-69
2021/07/20 10:02:47;;;;;;;6.33;2.60;;;;;;;26.17;43.13;99848.59;254039;1098;116117;-69
2021/07/20 10:08:01;;;;;;;3.60;2.65;;;;;;;25.81;43.71;99848.42;254228;1104;117275;-68
2021/07/20 10:13:31;;;;;;;7.18;2.90;;;;;;;25.53;43.65;99848.11;255394;1104;117073;-68
2021/07/20 10:18:42;;;;;;;5.65;2.30;;;;;;;25.65;44.74;99845.50;254866;1104;116834;-68
2021/07/20 10:24:14;;;;;;;3.08;2.03;;;;;;;26.47;44.57;99843.82;255377;1104;115677;-69
2021/07/20 10:29:27;;;;;;;3.95;2.30;;;;;;;26.92;43.77;99832.02;254596;1104;116315;-69
2021/07/20 10:34:32;;;;;;;3.13;1.88;;;;;;;27.23;43.27;99831.48;254239;1104;115421;-69
2021/07/20 10:39:37;;;;;;;;;;;;;;;27.54;42.50;99824.59;255093;1104;116523;-69
2021/07/20 10:44:47;;;;;;;3.90;2.13;;;;;;;27.03;41.81;99837.88;256934;1104;102950;-69
2021/07/20 10:50:19;;;;;;;6.55;1.93;;;;;;;26.53;42.05;99832.67;256201;1104;115375;-70
2021/07/20 10:55:31;;;;;;;2.55;2.20;;;;;;;26.36;41.79;99818.05;256475;1104;115568;-69
2021/07/20 11:00:52;;;;;;;2.40;2.30;;;;;;;26.41;41.46;99828.77;256995;1104;114838;-69
2021/07/20 11:05:59;;;;;;;3.38;2.50;;;;;;;26.37;41.10;99816.91;257198;1104;115561;-69
2021/07/20 11:11:03;;;;;;;2.53;1.97;;;;;;;26.47;41.46;99815.69;257223;1104;115339;-69
2021/07/20 11:16:10;;;;;;;4.87;2.13;;;;;;;26.64;41.06;99814.67;256645;1104;115124;-70
2021/07/20 11:21:21;;;;;;;4.25;2.28;;;;;;;26.69;39.84;99811.73;255976;1104;114981;-71
2021/07/20 11:26:29;;;;;;;3.47;2.67;;;;;;;26.78;40.17;99812.42;255767;1104;115163;-69
2021/07/20 11:31:46;;;;;;;5.93;2.78;;;;;;;27.17;40.26;99805.51;254599;1104;116681;-69
2021/07/20 11:36:55;;;;;;;3.40;2.48;;;;;;;27.00;39.02;99812.00;254185;1104;114622;-69
2021/07/20 11:42:12;;;;;;;2.87;2.57;;;;;;;26.98;39.30;99802.54;254519;1104;116132;-69
2021/07/20 11:47:27;;;;;;;3.50;2.53;;;;;;;27.52;39.52;99800.29;254289;1104;116685;-69
2021/07/20 11:53:02;;;;;;;3.88;2.23;;;;;;;27.42;39.33;99796.11;254226;1100;115710;-69
2021/07/20 11:58:07;;;;;;;;;;;;;;;27.47;38.92;99795.08;254487;1104;116100;-70
2021/07/20 12:03:17;;;;;;;2.57;2.27;;;;;;;27.49;38.88;99792.80;254888;1104;103374;-71
2021/07/20 12:08:58;;;;;;;5.77;2.90;;;;;;;28.12;38.97;99782.88;254356;1104;115141;-69
2021/07/20 12:14:05;;;;;;;3.58;2.70;;;;;;;27.66;38.50;99789.80;254331;1104;116377;-70
2021/07/20 12:19:11;;;;;;;2.43;2.23;;;;;;;27.10;38.28;99792.40;255085;1104;115922;-69
2021/07/20 12:24:16;;;;;;;4.68;2.60;;;;;;;26.56;39.03;99796.46;255108;1104;116088;-69
2021/07/20 12:29:21;;;;;;;3.05;2.78;;;;;;;26.09;39.77;99802.22;254384;1104;117828;-70
2021/07/20 12:34:26;;;;;;;;;;;;;;;25.62;40.07;99796.20;255254;1100;115398;-70
2021/07/20 12:39:30;;;;;;;2.83;2.63;;;;;;;25.31;41.06;99802.84;255998;1098;103950;-69
2021/07/20 12:44:36;;;;;;;3.73;2.35;;;;;;;25.09;41.41;99803.11;254169;1104;116483;-69
2021/07/20 12:49:44;;;;;;;6.77;3.20;;;;;;;24.91;41.94;99796.94;254436;1104;116523;-69
2021/07/20 12:54:48;;;;;;;3.03;2.73;;;;;;;24.76;42.10;99801.03;256332;1104;115034;-69
2021/07/20 12:59:56;;;;;;;5.35;2.58;;;;;;;24.74;42.35;99799.75;257160;1104;115512;-69
2021/07/20 13:05:04;;;;;;;4.53;2.47;;;;;;;24.69;41.79;99792.55;257286;1104;115400;-69
2021/07/20 13:10:10;;;;;;;2.43;2.23;;;;;;;24.76;42.74;99789.32;257217;1104;115211;-69
2021/07/20 13:15:19;;;;;;;2.58;2.33;;;;;;;24.74;41.79;99786.92;257101;1104;118119;-69
2021/07/20 13:20:29;;;;;;;5.08;2.40;;;;;;;24.82;41.91;99788.78;254925;1104;115445;-69
2021/07/20 13:25:34;;;;;;;4.08;2.10;;;;;;;24.87;41.76;99795.19;255332;1104;116372;-69
2021/07/20 13:30:39;;;;;;;3.95;2.63;;;;;;;25.35;41.88;99778.42;254334;1104;117188;-69
2021/07/20 13:35:47;;;;;;;3.40;2.73;;;;;;;25.94;41.57;99770.89;254409;1104;116027;-69
2021/07/20 13:40:53;;;;;;;3.93;2.58;;;;;;;26.42;40.63;99769.44;255669;1104;115583;-69
2021/07/20 13:46:00;;;;;;;9.63;3.45;;;;;;;26.38;40.38;99780.24;254277;1104;116408;-70
2021/07/20 13:51:06;;;;;;;3.28;2.98;;;;;;;26.29;40.19;99778.73;253963;1104;116079;-70
2021/07/20 13:56:29;;;;;;;3.20;2.85;;;;;;;26.04;39.58;99775.11;254149;1104;116641;-71
2021/07/20 14:01:41;;;;;;;6.65;3.08;;;;;;;26.05;39.21;99779.44;254329;1100;116348;-69
2021/07/20 14:06:51;;;;;;;3.10;2.80;;;;;;;26.07;40.23;99777.17;254230;1104;116191;-69
2021/07/20 14:11:56;;;;;;;2.63;2.43;;;;;;;26.24;40.00;99771.55;254667;1104;116324;-70
2021/07/20 14:17:02;;;;;;;2.93;2.43;;;;;;;26.05;39.81;99776.71;254331;1102;117021;-70
2021/07/20 14:22:08;;;;;;;2.68;2.48;;;;;;;25.80;39.87;99775.83;254369;1103;117690;-69
2021/07/20 14:27:14;;;;;;;2.90;2.60;;;;;;;25.58;40.22;99778.88;254232;1104;115585;-69
2021/07/20 14:32:23;;;;;;;3.28;2.98;;;;;;;25.34;39.74;99772.16;255285;1104;115373;-69
2021/07/20 14:37:46;;;;;;;3.23;2.93;;;;;;;25.25;39.99;99765.16;255242;1104;115503;-69
2021/07/20 14:43:02;;;;;;;3.08;2.80;;;;;;;25.08;40.30;99769.58;255648;1104;116483;-69
2021/07/20 14:48:13;;;;;;;3.28;2.40;;;;;;;24.90;40.45;99773.52;255558;1099;115909;-70
2021/07/20 14:53:30;;;;;;;5.13;3.20;;;;;;;24.67;41.27;99774.92;255282;1104;115319;-69
2021/07/20 14:58:39;;;;;;;3.70;2.67;;;;;;;24.43;41.22;99775.50;254462;1104;116307;-69
2021/07/20 15:03:46;;;;;;;2.85;2.65;;;;;;;24.29;42.18;99772.16;255414;1104;115810;-70
2021/07/20 15:08:59;;;;;;;4.00;3.03;;;;;;;24.28;42.40;99771.36;257291;1104;116450;-69
2021/07/20 15:14:26;;;;;;;5.30;2.77;;;;;;;24.28;42.72;99771.36;257141;1104;115160;-69
2021/07/20 15:19:39;;;;;;;10.17;3.80;;;;;;;24.23;42.72;99774.22;256214;1104;115497;-69
2021/07/20 15:24:45;;;;;;;7.00;3.13;;;;;;;24.15;42.57;99766.89;257088;1104;115130;-70
2021/07/20 15:29:54;;;;;;;3.13;2.80;;;;;;;24.08;42.85;99763.86;257162;1104;115205;-69
2021/07/20 15:34:59;;;;;;;4.35;3.23;;;;;;;23.98;42.61;99761.47;254413;1104;115370;-70
2021/07/20 15:40:09;;;;;;;2.58;2.38;;;;;;;23.82;42.87;99764.70;256273;1104;115163;-69
2021/07/20 15:45:17;;;;;;;3.10;2.65;;;;;;;23.71;43.31;99771.59;254068;1104;115560;-69
2021/07/20 15:50:36;;;;;;;3.28;2.68;;;;;;;23.61;43.41;99769.17;255526;1104;116935;-69
2021/07/20 15:55:42;;;;;;;5.50;3.13;;;;;;;23.59;43.49;99770.62;254028;1104;114890;-69
2021/07/20 16:00:48;;;;;;;3.65;3.35;;;;;;;23.65;43.93;99772.86;254928;1097;116106;-70
2021/07/20 16:05:53;;;;;;;;;;;;;;;23.67;43.91;99765.18;255056;1104;115540;-69
2021/07/20 16:11:00;;;;;;;3.78;3.38;;;;;;;23.69;43.88;99771.10;255187;1104;103561;-70
2021/07/20 16:16:08;;;;;;;4.80;2.58;;;;;;;23.64;43.45;99763.09;254338;1104;115814;-68
2021/07/20 16:21:16;;;;;;;3.15;2.90;;;;;;;23.53;43.58;99772.72;254324;1098;114925;-69
2021/07/20 16:26:25;;;;;;;3.25;2.58;;;;;;;23.43;43.77;99773.00;254900;1104;117665;-69
2021/07/20 16:31:31;;;;;;;4.53;2.27;;;;;;;23.40;44.21;99784.51;254160;1104;115307;-70
2021/07/20 16:36:35;;;;;;;4.58;2.65;;;;;;;23.38;44.42;99781.30;254668;1104;114828;-69
2021/07/20 16:41:40;;;;;;;6.13;2.50;;;;;;;23.41;44.09;99775.23;254207;1104;114761;-68
2021/07/20 16:46:45;;;;;;;2.78;2.58;;;;;;;23.40;44.30;99773.63;254146;1104;115895;-69
2021/07/20 16:51:50;;;;;;;5.15;2.23;;;;;;;23.42;44.25;99790.44;255140;1104;115446;-69
2021/07/20 16:56:54;;;;;;;5.10;2.55;;;;;;;23.33;44.84;99784.17;255143;1104;115075;-68
2021/07/20 17:01:58;;;;;;;5.70;2.50;;;;;;;23.23;44.77;99784.50;254890;1104;115670;-71
2021/07/20 17:07:03;;;;;;;3.87;2.70;;;;;;;23.05;45.16;99787.16;255506;1104;117430;-69
2021/07/20 17:12:11;;;;;;;3.18;2.98;;;;;;;22.89;45.66;99783.29;254912;1104;116048;-68
2021/07/20 17:17:35;;;;;;;3.30;2.35;;;;;;;22.73;45.73;99804.61;257312;1104;116017;-69
2021/07/20 17:22:41;;;;;;;5.70;2.43;;;;;;;22.61;46.49;99801.70;257371;1104;117297;-68
2021/07/20 17:27:48;;;;;;;6.33;2.85;;;;;;;22.52;47.16;99800.84;257490;1104;115705;-69
2021/07/20 17:32:58;;;;;;;3.37;2.27;;;;;;;22.44;47.27;99807.03;257112;1104;116762;-69
2021/07/20 17:38:03;;;;;;;3.53;2.40;;;;;;;22.33;48.15;99806.48;257268;1104;116709;-68
2021/07/20 17:43:07;;;;;;;4.03;2.93;;;;;;;22.23;48.46;99801.33;256583;1104;116842;-68
2021/07/20 17:48:21;;;;;;;;;;;;;;;22.08;48.89;99813.36;254762;1100;116694;-69
2021/07/20 17:53:27;;;;;;;4.80;3.25;;;;;;;21.90;49.38;99817.03;256341;1098;103971;-69
2021/07/20 17:58:33;;;;;;;3.10;2.80;;;;;;;21.76;50.56;99824.41;254786;1099;116267;-68
2021/07/20 18:03:38;;;;;;;3.63;3.00;;;;;;;21.59;50.86;99825.07;254397;1104;117159;-68
2021/07/20 18:08:46;;;;;;;2.83;2.57;;;;;;;21.42;51.27;99827.60;254932;1098;116684;-68
2021/07/20 18:13:53;;;;;;;3.85;3.13;;;;;;;21.23;51.83;99830.45;254841;1104;115067;-69
2021/07/20 18:18:59;;;;;;;3.23;3.03;;;;;;;21.04;51.87;99827.83;254115;1103;115913;-69
2021/07/20 18:24:05;;;;;;;2.93;2.68;;;;;;;20.88;52.48;99840.06;254115;1104;116960;-69
2021/07/20 18:29:10;;;;;;;3.77;3.43;;;;;;;20.68;52.82;99845.86;254263;1100;115613;-68
2021/07/20 18:34:16;;;;;;;4.93;3.10;;;;;;;20.48;53.06;99853.23;254470;1104;117820;-69
2021/07/20 18:39:22;;;;;;;5.00;3.70;;;;;;;20.30;53.12;99854.06;254725;1104;116697;-68
2021/07/20 18:44:30;;;;;;;2.80;2.15;;;;;;;20.12;53.85;99858.42;254522;1099;117590;-68
2021/07/20 18:49:36;;;;;;;3.45;2.53;;;;;;;19.93;54.33;99867.63;254296;1100;115902;-68
2021/07/20 18:54:42;;;;;;;;;;;;;;;19.77;55.24;99873.27;254999;1104;116057;-68
2021/07/20 18:59:49;;;;;;;4.88;2.35;;;;;;;19.61;55.73;99879.17;255297;1104;103177;-68
2021/07/20 19:04:53;;;;;;;5.37;2.97;;;;;;;19.50;56.67;99883.89;254625;1104;116014;-69
2021/07/20 19:10:00;;;;;;;3.40;2.98;;;;;;;19.35;57.47;99892.98;254428;1104;116062;-69
2021/07/20 19:15:06;;;;;;;4.43;3.17;;;;;;;19.27;57.62;99903.61;254643;1104;136975;-69
2021/07/20 19:20:13;;;;;;;9.05;3.90;;;;;;;19.14;58.35;99902.42;257103;1104;117590;-69
2021/07/20 19:25:19;;;;;;;4.17;2.67;;;;;;;19.05;58.08;99902.23;256538;1104;115482;-68
2021/07/20 19:30:24;;;;;;;3.88;3.33;;;;;;;18.96;58.79;99911.24;257132;1104;114954;-68
2021/07/20 19:35:29;;;;;;;7.78;3.70;;;;;;;18.91;59.23;99922.93;257254;1104;116766;-68
2021/07/20 19:40:38;;;;;;;5.25;3.53;;;;;;;18.86;59.28;99922.97;257157;1104;115347;-68
2021/07/20 19:45:45;;;;;;;4.43;3.10;;;;;;;18.84;59.46;99925.15;256974;1104;116398;-69
2021/07/20 19:50:52;;;;;;;5.23;3.25;;;;;;;18.80;59.81;99924.91;256226;1104;115954;-69
2021/07/20 19:55:57;;;;;;;18.18;5.30;;;;;;;18.73;59.64;99932.53;256504;1104;115321;-69
2021/07/20 20:01:03;;;;;;;15.85;4.90;;;;;;;18.66;60.00;99933.94;253811;1104;115582;-69
2021/07/20 20:06:08;;;;;;;8.43;4.70;;;;;;;18.57;60.34;99930.23;254986;1104;115672;-69
2021/07/20 20:11:14;;;;;;;7.88;5.15;;;;;;;18.46;60.29;99930.30;253811;1104;115446;-70
2021/07/20 20:16:18;;;;;;;11.35;6.15;;;;;;;18.38;60.23;99927.38;255797;1104;115396;-67
2021/07/20 20:21:24;;;;;;;8.83;6.68;;;;;;;18.27;60.45;99931.27;253739;1104;115354;-68
2021/07/20 20:26:30;;;;;;;11.15;5.05;;;;;;;18.16;60.55;99935.91;257007;1104;114330;-68
2021/07/20 20:31:36;;;;;;;14.68;6.58;;;;;;;18.01;60.69;99931.42;253785;1104;114756;-68
2021/07/20 20:36:42;;;;;;;9.13;7.18;;;;;;;17.86;60.75;99931.50;254719;1099;115476;-68
2021/07/20 20:41:47;;;;;;;8.03;7.05;;;;;;;17.72;60.86;99942.09;254395;1100;115455;-70
2021/07/20 20:46:52;;;;;;;11.60;7.48;;;;;;;17.68;61.02;99934.83;254672;1104;115287;-67
2021/07/20 20:51:57;;;;;;;13.30;7.87;;;;;;;17.64;61.09;99944.52;256707;1104;115496;-66
2021/07/20 20:57:02;;;;;;;7.55;6.48;;;;;;;17.55;60.92;99941.58;254553;1104;115447;-66
2021/07/20 21:02:07;;;;;;;9.00;6.43;;;;;;;17.48;61.15;99946.45;255558;1104;115490;-66
2021/07/20 21:07:13;;;;;;;7.13;5.55;;;;;;;17.40;61.05;99953.23;256206;1104;115075;-65
2021/07/20 21:12:20;;;;;;;9.15;6.15;;;;;;;17.28;61.02;99951.91;256385;1104;114881;-65
2021/07/20 21:17:28;;;;;;;7.20;6.50;;;;;;;17.18;61.38;99963.51;257045;1104;115611;-68
2021/07/20 21:22:34;;;;;;;10.03;5.47;;;;;;;17.12;61.11;99968.09;257134;1104;115535;-67
2021/07/20 21:27:39;;;;;;;6.27;5.57;;;;;;;17.05;61.01;99964.89;257200;1104;115068;-67
2021/07/20 21:32:44;;;;;;;6.50;4.83;;;;;;;16.99;61.56;99965.97;257081;1104;115249;-66
2021/07/20 21:37:49;;;;;;;8.43;4.97;;;;;;;16.91;61.69;99977.28;257055;1104;115179;-67
2021/07/20 21:42:55;;;;;;;5.35;4.85;;;;;;;16.81;61.98;99980.00;257074;1104;115588;-66
2021/07/20 21:48:00;;;;;;;8.95;5.98;;;;;;;16.73;61.94;99977.84;257161;1104;115410;-67
2021/07/20 21:53:06;;;;;;;7.30;5.05;;;;;;;16.65;62.27;99981.86;256800;1104;115316;-66
2021/07/20 21:58:10;;;;;;;5.30;4.78;;;;;;;16.58;62.09;99980.48;256099;1104;115101;-66
2021/07/20 22:03:18;;;;;;;7.05;5.08;;;;;;;16.50;62.74;99981.84;256059;1104;115284;-67
2021/07/20 22:08:23;;;;;;;8.40;4.63;;;;;;;16.36;62.26;99981.54;256529;1104;115362;-66
2021/07/20 22:13:28;;;;;;;14.47;5.50;;;;;;;16.26;62.76;99980.70;257102;1104;115426;-65
2021/07/20 22:18:33;;;;;;;5.47;4.80;;;;;;;16.16;62.77;99976.94;253700;1100;115754;-67
2021/07/20 22:23:39;;;;;;;7.43;5.63;;;;;;;16.09;63.15;99976.38;254814;1104;114389;-65
2021/07/20 22:28:45;;;;;;;6.43;4.63;;;;;;;16.01;62.93;99974.19;255557;1104;114512;-68
2021/07/20 22:33:51;;;;;;;5.30;4.65;;;;;;;15.98;63.79;99980.09;254593;1104;115469;-66
2021/07/20 22:39:02;;;;;;;7.95;5.20;;;;;;;15.88;63.65;99982.77;254880;1104;115366;-66
2021/07/20 22:44:09;;;;;;;6.70;5.58;;;;;;;15.80;63.55;99989.45;256185;1104;116168;-67
2021/07/20 22:49:15;;;;;;;6.40;4.68;;;;;;;15.68;63.83;99983.47;256368;1104;116123;-67
2021/07/20 22:54:22;;;;;;;10.10;4.85;;;;;;;15.61;64.00;99987.46;256975;1104;114834;-67
2021/07/20 22:59:28;;;;;;;7.28;3.98;;;;;;;15.61;63.68;99990.15;255986;1104;114716;-66
2021/07/20 23:04:33;;;;;;;7.20;4.60;;;;;;;15.56;63.89;99987.43;255408;1104;114787;-67
2021/07/20 23:09:37;;;;;;;9.90;4.38;;;;;;;15.45;63.85;99984.68;256675;1104;116124;-66
2021/07/20 23:14:42;;;;;;;9.27;4.73;;;;;;;15.45;63.38;99989.24;253976;1104;114813;-67
2021/07/20 23:19:47;;;;;;;5.85;4.00;;;;;;;15.46;63.71;99999.73;254950;1104;114955;-68
2021/07/20 23:24:52;;;;;;;6.70;4.28;;;;;;;15.47;64.05;100003.23;254310;1100;115229;-66
2021/07/20 23:29:57;;;;;;;4.33;3.73;;;;;;;15.46;63.55;100004.30;255904;1104;115321;-67
2021/07/20 23:35:03;;;;;;;4.88;4.25;;;;;;;15.41;63.78;99993.52;257160;1104;114881;-68
2021/07/20 23:40:11;;;;;;;5.80;3.45;;;;;;;15.39;63.39;100001.02;256010;1104;114952;-67
2021/07/20 23:45:16;;;;;;;6.63;3.85;;;;;;;15.32;63.99;100011.18;257169;1104;114856;-68